createdAt,value
2017-05-31T00:01:49.427Z,64.05
2017-05-31T00:03:50.907Z,64.22
2017-05-31T00:05:52.538Z,64.31
2017-05-31T00:07:54.437Z,64.50
2017-05-31T00:09:56.388Z,64.05
2017-05-31T00:11:57.992Z,63.96
2017-05-31T00:13:59.454Z,64.25
2017-05-31T00:16:01.663Z,64.25
2017-05-31T00:18:03.569Z,64.22
2017-05-31T00:20:05.074Z,64.31
2017-05-31T00:22:06.543Z,64.22
2017-05-31T00:24:08.049Z,64.50
2017-05-31T00:26:10.313Z,64.59
2017-05-31T00:28:11.808Z,64.98
2017-05-31T00:30:13.302Z,64.89
2017-05-31T00:32:15.232Z,64.69
2017-05-31T00:34:16.717Z,64.98
2017-05-31T00:36:18.177Z,64.31
2017-05-31T00:38:20.193Z,64.22
2017-05-31T00:40:22.245Z,64.31
2017-05-31T00:42:24.215Z,64.40
2017-05-31T00:44:25.733Z,64.31
2017-05-31T00:46:27.194Z,64.40
2017-05-31T00:48:28.696Z,64.31
2017-05-31T00:50:30.714Z,64.79
2017-05-31T00:52:32.241Z,64.79
2017-05-31T00:54:34.300Z,64.69
2017-05-31T00:56:35.889Z,64.50
2017-05-31T00:58:37.532Z,64.31
2017-05-31T01:00:39.610Z,64.22
2017-05-31T01:02:41.714Z,64.31
2017-05-31T01:04:43.240Z,63.73
2017-05-31T01:06:45.350Z,63.92
2017-05-31T01:08:46.914Z,63.83
2017-05-31T01:10:48.981Z,64.40
2017-05-31T01:12:50.469Z,64.31
2017-05-31T01:14:52.122Z,64.98
2017-05-31T01:16:53.764Z,64.79
2017-05-31T01:18:55.214Z,64.79
2017-05-31T01:20:56.840Z,64.69
2017-05-31T01:22:58.857Z,65.23
2017-05-31T01:25:00.893Z,65.81
2017-05-31T01:27:03.034Z,65.23
2017-05-31T01:29:05.186Z,65.23
2017-05-31T01:31:06.851Z,65.72
2017-05-31T01:33:08.282Z,65.17
2017-05-31T01:35:09.890Z,65.17
2017-05-31T01:37:11.506Z,64.98
2017-05-31T01:39:12.978Z,65.72
2017-05-31T01:41:14.409Z,66.00
2017-05-31T01:43:15.840Z,66.77
2017-05-31T01:45:17.371Z,66.77
2017-05-31T01:47:18.797Z,66.49
2017-05-31T01:49:20.229Z,66.49
2017-05-31T01:51:21.659Z,66.86
2017-05-31T01:53:23.087Z,66.49
2017-05-31T01:55:24.870Z,66.77
2017-05-31T01:57:26.295Z,66.58
2017-05-31T01:59:27.717Z,66.58
2017-05-31T02:01:29.921Z,66.58
2017-05-31T02:03:32.107Z,67.06
2017-05-31T02:05:33.580Z,67.44
2017-05-31T02:07:35.171Z,66.96
2017-05-31T02:09:36.688Z,66.96
2017-05-31T02:11:38.161Z,66.96
2017-05-31T02:13:39.647Z,67.25
2017-05-31T02:15:41.099Z,66.96
2017-05-31T02:17:42.651Z,67.63
2017-05-31T02:19:44.928Z,67.44
2017-05-31T02:21:47.002Z,67.63
2017-05-31T02:23:48.595Z,67.44
2017-05-31T02:25:50.267Z,67.44
2017-05-31T02:27:52.186Z,67.44
2017-05-31T02:29:54.379Z,67.35
2017-05-31T02:31:56.567Z,67.73
2017-05-31T02:33:58.100Z,68.75
2017-05-31T02:35:59.588Z,68.30
2017-05-31T02:38:01.069Z,68.37
2017-05-31T02:40:02.529Z,68.27
2017-05-31T02:42:04.053Z,68.59
2017-05-31T02:44:05.598Z,68.08
2017-05-31T02:46:07.160Z,68.46
2017-05-31T02:48:08.721Z,68.46
2017-05-31T02:50:10.829Z,68.18
2017-05-31T02:52:13.130Z,68.46
2017-05-31T02:54:14.576Z,68.75
2017-05-31T02:56:16.723Z,68.56
2017-05-31T02:58:18.734Z,68.95
2017-05-31T03:00:20.699Z,69.13
2017-05-31T03:02:22.766Z,69.62
2017-05-31T03:04:24.805Z,69.33
2017-05-31T03:06:26.300Z,69.81
2017-05-31T03:08:28.567Z,70.00
2017-05-31T03:10:30.727Z,69.96
2017-05-31T03:12:32.878Z,69.81
2017-05-31T03:14:34.370Z,70.25
2017-05-31T03:16:35.813Z,70.73
2017-05-31T03:18:37.287Z,70.92
2017-05-31T03:20:38.758Z,70.92
2017-05-31T03:22:40.397Z,70.83
2017-05-31T03:24:41.885Z,71.21
2017-05-31T03:26:43.354Z,71.40
2017-05-31T03:28:44.848Z,71.21
2017-05-31T03:30:46.329Z,71.11
2017-05-31T03:32:48.155Z,71.02
2017-05-31T03:34:49.665Z,71.25
2017-05-31T03:36:51.152Z,70.83
2017-05-31T03:38:52.620Z,71.15
2017-05-31T03:40:55.744Z,71.25
2017-05-31T03:42:57.409Z,71.05
2017-05-31T03:44:58.866Z,71.15
2017-05-31T03:47:00.359Z,71.05
2017-05-31T03:49:01.785Z,71.34
2017-05-31T03:51:03.473Z,71.53
2017-05-31T03:53:04.986Z,71.25
2017-05-31T03:55:06.681Z,71.15
2017-05-31T03:57:08.152Z,70.96
2017-05-31T03:59:09.639Z,71.63
2017-05-31T04:01:11.344Z,71.53
2017-05-31T04:03:12.939Z,71.05
2017-05-31T04:05:15.119Z,71.44
2017-05-31T04:07:17.151Z,71.53
2017-05-31T04:09:18.660Z,71.53
2017-05-31T04:11:20.264Z,71.53
2017-05-31T04:13:22.447Z,71.53
2017-05-31T04:15:23.908Z,71.63
2017-05-31T04:17:25.459Z,71.44
2017-05-31T04:19:26.971Z,71.34
2017-05-31T04:21:29.080Z,71.53
2017-05-31T04:23:30.647Z,71.53
2017-05-31T04:25:32.114Z,71.53
2017-05-31T04:27:33.703Z,72.11
2017-05-31T04:29:35.923Z,72.01
2017-05-31T04:31:37.395Z,72.01
2017-05-31T04:33:38.894Z,71.82
2017-05-31T04:35:40.524Z,71.82
2017-05-31T04:37:42.022Z,72.11
2017-05-31T04:39:44.137Z,71.72
2017-05-31T04:41:45.687Z,71.66
2017-05-31T04:43:47.183Z,72.53
2017-05-31T04:45:48.660Z,71.95
2017-05-31T04:47:50.754Z,71.19
2017-05-31T04:49:52.746Z,71.86
2017-05-31T04:51:54.503Z,71.86
2017-05-31T04:53:56.500Z,70.99
2017-05-31T04:55:58.825Z,71.37
2017-05-31T04:58:00.187Z,71.47
2017-05-31T05:00:01.692Z,71.57
2017-05-31T05:02:03.153Z,71.57
2017-05-31T05:04:04.610Z,71.51
2017-05-31T05:06:06.040Z,71.37
2017-05-31T05:08:07.474Z,71.31
2017-05-31T05:10:08.905Z,71.61
2017-05-31T05:12:10.341Z,71.61
2017-05-31T05:14:11.773Z,71.12
2017-05-31T05:16:13.199Z,71.22
2017-05-31T05:18:14.632Z,71.41
2017-05-31T05:20:16.063Z,71.41
2017-05-31T05:22:17.518Z,71.41
2017-05-31T05:24:19.089Z,71.22
2017-05-31T05:26:20.564Z,71.03
2017-05-31T05:28:22.003Z,71.22
2017-05-31T05:30:24.134Z,70.74
2017-05-31T05:32:26.507Z,70.84
2017-05-31T05:34:28.631Z,70.97
2017-05-31T05:36:30.577Z,70.29
2017-05-31T05:38:32.097Z,68.98
2017-05-31T05:40:33.541Z,68.41
2017-05-31T05:42:35.699Z,66.91
2017-05-31T05:44:37.278Z,64.92
2017-05-31T05:46:38.819Z,63.44
2017-05-31T05:48:40.236Z,61.65
2017-05-31T05:50:41.797Z,62.22
2017-05-31T05:52:43.248Z,61.10
2017-05-31T05:54:44.789Z,59.27
2017-05-31T05:56:47.149Z,58.81
2017-05-31T05:58:48.788Z,56.62
2017-05-31T06:00:50.300Z,54.00
2017-05-31T06:02:51.861Z,50.57
2017-05-31T06:04:53.383Z,48.20
2017-05-31T06:06:54.889Z,45.17
2017-05-31T06:08:56.401Z,43.27
2017-05-31T06:10:57.948Z,41.10
2017-05-31T06:12:59.449Z,38.62
2017-05-31T06:15:01.028Z,37.19
2017-05-31T06:17:03.379Z,36.12
2017-05-31T06:19:04.914Z,36.51
2017-05-31T06:21:06.441Z,37.37
2017-05-31T06:23:08.004Z,39.20
2017-05-31T06:25:09.593Z,38.70
2017-05-31T06:27:11.113Z,37.66
2017-05-31T06:29:12.669Z,36.92
2017-05-31T06:31:15.190Z,35.16
2017-05-31T06:33:17.119Z,34.71
2017-05-31T06:35:18.976Z,34.03
2017-05-31T06:37:21.470Z,34.69
2017-05-31T06:39:23.367Z,33.28
2017-05-31T06:41:24.918Z,32.81
2017-05-31T06:43:26.471Z,31.54
2017-05-31T06:45:27.965Z,32.03
2017-05-31T06:47:29.568Z,31.65
2017-05-31T06:49:31.294Z,30.12
2017-05-31T06:51:32.881Z,30.02
2017-05-31T06:53:34.388Z,30.12
2017-05-31T06:55:36.112Z,31.46
2017-05-31T06:57:37.646Z,31.67
2017-05-31T06:59:39.157Z,30.98
2017-05-31T07:01:40.689Z,31.07
2017-05-31T07:03:42.208Z,32.14
2017-05-31T07:05:44.602Z,30.20
2017-05-31T07:07:46.931Z,30.97
2017-05-31T07:09:49.468Z,31.93
2017-05-31T07:11:51.768Z,31.26
2017-05-31T07:13:53.673Z,31.74
2017-05-31T07:15:55.190Z,33.64
2017-05-31T07:17:56.776Z,34.03
2017-05-31T07:19:59.278Z,34.48
2017-05-31T07:22:01.150Z,37.37
2017-05-31T07:24:02.629Z,37.35
2017-05-31T07:26:04.147Z,37.74
2017-05-31T07:28:05.740Z,38.21
2017-05-31T07:30:08.142Z,39.53
2017-05-31T07:32:09.687Z,41.55
2017-05-31T07:34:11.264Z,44.01
2017-05-31T07:36:13.625Z,45.49
2017-05-31T07:38:15.640Z,48.18
2017-05-31T07:40:17.154Z,49.90
2017-05-31T07:42:19.381Z,50.93
2017-05-31T07:44:20.915Z,51.39
2017-05-31T07:46:22.386Z,53.03
2017-05-31T07:48:23.964Z,54.58
2017-05-31T07:50:26.052Z,53.13
2017-05-31T07:52:28.360Z,51.59
2017-05-31T07:54:30.171Z,52.17
2017-05-31T07:56:32.057Z,53.52
2017-05-31T07:58:34.305Z,52.45
2017-05-31T08:00:36.697Z,54.19
2017-05-31T08:02:38.278Z,52.26
2017-05-31T08:04:39.753Z,51.46
2017-05-31T08:06:41.562Z,52.91
2017-05-31T08:08:43.048Z,53.88
2017-05-31T08:10:44.574Z,53.30
2017-05-31T08:12:46.091Z,52.91
2017-05-31T08:14:48.296Z,53.39
2017-05-31T08:16:50.510Z,54.65
2017-05-31T08:18:52.785Z,53.30
2017-05-31T08:20:55.038Z,51.65
2017-05-31T08:22:56.754Z,52.53
2017-05-31T08:24:58.403Z,51.44
2017-05-31T08:26:59.994Z,54.72
2017-05-31T08:29:01.640Z,52.79
2017-05-31T08:31:03.295Z,53.20
2017-05-31T08:33:04.820Z,52.26
2017-05-31T08:35:06.570Z,51.59
2017-05-31T08:37:08.297Z,51.65
2017-05-31T08:39:09.973Z,50.98
2017-05-31T08:41:11.535Z,51.44
2017-05-31T08:43:13.174Z,52.98
2017-05-31T08:45:14.734Z,53.75
2017-05-31T08:47:16.322Z,54.02
2017-05-31T08:49:18.624Z,54.40
2017-05-31T08:51:20.532Z,56.43
2017-05-31T08:53:22.911Z,55.88
2017-05-31T08:55:24.821Z,55.13
2017-05-31T08:57:26.335Z,53.33
2017-05-31T08:59:27.837Z,52.81
2017-05-31T09:01:29.409Z,54.07
2017-05-31T09:03:30.913Z,54.49
2017-05-31T09:05:32.483Z,52.77
2017-05-31T09:07:34.660Z,51.25
2017-05-31T09:09:36.245Z,48.76
2017-05-31T09:11:38.166Z,48.18
2017-05-31T09:13:39.716Z,45.01
2017-05-31T09:15:42.026Z,47.43
2017-05-31T09:17:43.538Z,47.04
2017-05-31T09:19:45.276Z,45.88
2017-05-31T09:21:46.801Z,46.17
2017-05-31T09:23:48.432Z,46.92
2017-05-31T09:25:49.906Z,47.99
2017-05-31T09:27:51.398Z,47.99
2017-05-31T09:29:52.939Z,46.92
2017-05-31T09:31:54.440Z,47.77
2017-05-31T09:33:56.634Z,49.51
2017-05-31T09:35:58.155Z,49.05
2017-05-31T09:38:00.274Z,47.79
2017-05-31T09:40:02.563Z,46.84
2017-05-31T09:42:04.731Z,47.06
2017-05-31T09:44:06.361Z,43.75
2017-05-31T09:46:08.419Z,46.29
2017-05-31T09:48:10.377Z,44.35
2017-05-31T09:50:12.493Z,45.83
2017-05-31T09:52:14.633Z,43.12
2017-05-31T09:54:16.849Z,44.09
2017-05-31T09:56:18.682Z,41.66
2017-05-31T09:58:20.831Z,42.14
2017-05-31T10:00:22.396Z,43.04
2017-05-31T10:02:23.905Z,43.74
2017-05-31T10:04:25.461Z,42.99
2017-05-31T10:06:27.678Z,41.55
2017-05-31T10:08:29.462Z,40.00
2017-05-31T10:10:31.879Z,38.64
2017-05-31T10:12:33.801Z,39.95
2017-05-31T10:14:36.105Z,38.78
2017-05-31T10:16:37.621Z,42.19
2017-05-31T10:18:39.116Z,41.70
2017-05-31T10:20:40.727Z,42.09
2017-05-31T10:22:42.240Z,42.19
2017-05-31T10:24:43.697Z,42.19
2017-05-31T10:26:45.200Z,42.09
2017-05-31T10:28:46.675Z,42.05
2017-05-31T10:30:48.227Z,42.17
2017-05-31T10:32:50.029Z,43.13
2017-05-31T10:34:52.362Z,41.20
2017-05-31T10:36:53.889Z,41.00
2017-05-31T10:38:55.493Z,42.05
2017-05-31T10:40:56.975Z,42.71
2017-05-31T10:42:58.483Z,43.58
2017-05-31T10:44:59.972Z,44.64
2017-05-31T10:47:01.453Z,44.72
2017-05-31T10:49:03.565Z,44.81
2017-05-31T10:51:05.086Z,45.76
2017-05-31T10:53:06.669Z,45.86
2017-05-31T10:55:08.580Z,47.99
2017-05-31T10:57:10.471Z,47.69
2017-05-31T10:59:12.740Z,47.50
2017-05-31T11:01:14.938Z,47.48
2017-05-31T11:03:16.894Z,49.34
2017-05-31T11:05:18.781Z,48.95
2017-05-31T11:07:20.266Z,49.24
2017-05-31T11:09:22.419Z,48.30
2017-05-31T11:11:24.676Z,47.19
2017-05-31T11:13:26.808Z,46.31
2017-05-31T11:15:28.650Z,45.00
2017-05-31T11:17:30.413Z,44.71
2017-05-31T11:19:31.982Z,42.79
2017-05-31T11:21:34.259Z,42.50
2017-05-31T11:23:35.750Z,42.33
2017-05-31T11:25:38.243Z,40.56
2017-05-31T11:27:40.869Z,41.43
2017-05-31T11:29:42.420Z,42.19
2017-05-31T11:31:43.924Z,41.30
2017-05-31T11:33:45.475Z,42.65
2017-05-31T11:35:47.041Z,43.50
2017-05-31T11:37:48.832Z,43.89
2017-05-31T11:39:50.350Z,44.18
2017-05-31T11:41:51.827Z,44.01
2017-05-31T11:43:53.616Z,43.93
2017-05-31T11:45:55.481Z,42.21
2017-05-31T11:47:56.981Z,39.28
2017-05-31T11:49:58.625Z,39.06
2017-05-31T11:52:00.159Z,40.11
2017-05-31T11:54:01.690Z,39.43
2017-05-31T11:56:03.186Z,41.16
2017-05-31T11:58:04.773Z,41.62
2017-05-31T12:00:06.712Z,42.10
2017-05-31T12:02:08.219Z,42.40
2017-05-31T12:04:10.438Z,43.37
2017-05-31T12:06:12.817Z,42.59
2017-05-31T12:08:14.382Z,43.75
2017-05-31T12:10:16.601Z,42.97
2017-05-31T12:12:18.493Z,44.12
2017-05-31T12:14:20.034Z,44.12
2017-05-31T12:16:21.507Z,44.02
2017-05-31T12:18:22.961Z,44.40
2017-05-31T12:20:24.451Z,44.60
2017-05-31T12:22:25.973Z,44.60
2017-05-31T12:24:28.310Z,44.70
2017-05-31T12:26:29.688Z,44.70
2017-05-31T12:28:31.357Z,45.66
2017-05-31T12:30:33.138Z,45.47
2017-05-31T12:32:34.638Z,44.79
2017-05-31T12:34:36.754Z,45.08
2017-05-31T12:36:38.285Z,45.86
2017-05-31T12:38:39.753Z,46.63
2017-05-31T12:40:41.314Z,45.10
2017-05-31T12:42:43.030Z,45.01
2017-05-31T12:44:44.499Z,43.85
2017-05-31T12:46:46.036Z,44.43
2017-05-31T12:48:47.902Z,44.91
2017-05-31T12:50:49.481Z,43.24
2017-05-31T12:52:51.043Z,45.76
2017-05-31T12:54:53.412Z,47.60
2017-05-31T12:56:54.914Z,45.57
2017-05-31T12:58:57.068Z,45.47
2017-05-31T13:00:58.618Z,46.15
2017-05-31T13:03:00.102Z,44.81
2017-05-31T13:05:01.739Z,44.91
2017-05-31T13:07:03.330Z,44.91
2017-05-31T13:09:04.799Z,42.78
2017-05-31T13:11:06.512Z,44.54
2017-05-31T13:13:08.027Z,41.93
2017-05-31T13:15:09.514Z,42.71
2017-05-31T13:17:12.265Z,42.41
2017-05-31T13:19:13.793Z,42.80
2017-05-31T13:21:16.150Z,42.03
2017-05-31T13:23:18.409Z,41.93
2017-05-31T13:25:20.181Z,42.61
2017-05-31T13:27:22.594Z,42.88
2017-05-31T13:29:24.562Z,42.78
2017-05-31T13:31:26.081Z,42.88
2017-05-31T13:33:27.581Z,44.43
2017-05-31T13:35:29.087Z,42.10
2017-05-31T13:37:30.561Z,42.68
2017-05-31T13:39:32.050Z,43.55
2017-05-31T13:41:33.602Z,43.15
2017-05-31T13:43:35.230Z,42.66
2017-05-31T13:45:36.746Z,44.21
2017-05-31T13:47:38.337Z,44.89
2017-05-31T13:49:39.829Z,45.66
2017-05-31T13:51:41.393Z,43.82
2017-05-31T13:53:42.859Z,44.77
2017-05-31T13:55:44.340Z,44.87
2017-05-31T13:57:45.886Z,44.38
2017-05-31T13:59:47.370Z,43.61
2017-05-31T14:01:49.179Z,43.23
2017-05-31T14:03:51.047Z,43.03
2017-05-31T14:05:52.531Z,42.93
2017-05-31T14:07:53.993Z,44.57
2017-05-31T14:09:55.541Z,44.79
2017-05-31T14:11:57.158Z,43.15
2017-05-31T14:13:58.653Z,43.34
2017-05-31T14:16:00.118Z,43.73
2017-05-31T14:18:02.392Z,43.75
2017-05-31T14:20:07.107Z,43.77
2017-05-31T14:22:09.037Z,42.82
2017-05-31T14:24:11.093Z,40.89
2017-05-31T14:26:13.011Z,40.89
2017-05-31T14:28:15.292Z,39.51
2017-05-31T14:30:16.763Z,41.74
2017-05-31T14:32:18.237Z,42.14
2017-05-31T14:34:19.747Z,40.89
2017-05-31T14:36:21.244Z,41.17
2017-05-31T14:38:22.757Z,41.08
2017-05-31T14:40:24.239Z,41.47
2017-05-31T14:42:25.765Z,40.79
2017-05-31T14:44:27.839Z,39.53
2017-05-31T14:46:29.653Z,40.40
2017-05-31T14:48:31.131Z,40.21
2017-05-31T14:50:32.740Z,39.82
2017-05-31T14:52:34.242Z,39.34
2017-05-31T14:54:36.772Z,40.61
2017-05-31T14:56:38.264Z,39.82
2017-05-31T14:58:40.725Z,40.59
2017-05-31T15:00:42.178Z,40.69
2017-05-31T15:02:43.658Z,40.01
2017-05-31T15:04:45.166Z,39.92
2017-05-31T15:06:46.638Z,39.04
2017-05-31T15:08:48.877Z,40.38
2017-05-31T15:10:50.495Z,42.10
2017-05-31T15:12:51.977Z,42.30
2017-05-31T15:14:53.435Z,43.27
2017-05-31T15:16:54.919Z,41.33
2017-05-31T15:18:56.454Z,43.09
2017-05-31T15:20:57.942Z,41.55
2017-05-31T15:22:59.487Z,41.93
2017-05-31T15:25:01.088Z,42.24
2017-05-31T15:27:02.563Z,40.21
2017-05-31T15:29:04.045Z,40.79
2017-05-31T15:31:05.529Z,40.69
2017-05-31T15:33:07.021Z,40.11
2017-05-31T15:35:08.550Z,39.55
2017-05-31T15:37:10.022Z,40.50
2017-05-31T15:39:12.352Z,40.11
2017-05-31T15:41:14.213Z,39.24
2017-05-31T15:43:15.710Z,40.01
2017-05-31T15:45:17.199Z,40.09
2017-05-31T15:47:18.661Z,40.31
2017-05-31T15:49:20.147Z,41.25
2017-05-31T15:51:22.433Z,41.27
2017-05-31T15:53:24.711Z,40.48
2017-05-31T15:55:26.902Z,41.74
2017-05-31T15:57:28.787Z,41.45
2017-05-31T15:59:31.276Z,41.06
2017-05-31T16:01:33.588Z,40.96
2017-05-31T16:03:36.063Z,42.22
2017-05-31T16:05:38.559Z,40.67
2017-05-31T16:07:40.073Z,41.06
2017-05-31T16:09:42.346Z,39.90
2017-05-31T16:11:44.263Z,39.61
2017-05-31T16:13:46.184Z,40.48
2017-05-31T16:15:47.646Z,40.19
2017-05-31T16:17:49.119Z,40.38
2017-05-31T16:19:50.577Z,41.16
2017-05-31T16:21:52.017Z,39.51
2017-05-31T16:23:54.321Z,39.22
2017-05-31T16:25:55.887Z,40.09
2017-05-31T16:27:57.523Z,40.48
2017-05-31T16:29:59.086Z,40.46
2017-05-31T16:32:01.325Z,41.04
2017-05-31T16:34:03.566Z,40.26
2017-05-31T16:36:05.573Z,40.36
2017-05-31T16:38:07.433Z,40.65
2017-05-31T16:40:08.918Z,40.17
2017-05-31T16:42:10.367Z,40.48
2017-05-31T16:44:11.830Z,38.91
2017-05-31T16:46:13.665Z,40.46
2017-05-31T16:48:15.590Z,40.96
2017-05-31T16:50:17.059Z,40.65
2017-05-31T16:52:18.552Z,40.17
2017-05-31T16:54:20.024Z,40.17
2017-05-31T16:56:21.558Z,40.46
2017-05-31T16:58:23.081Z,39.11
2017-05-31T17:00:25.348Z,39.39
2017-05-31T17:02:26.893Z,39.78
2017-05-31T17:04:28.483Z,40.56
2017-05-31T17:06:29.979Z,40.07
2017-05-31T17:08:31.507Z,39.78
2017-05-31T17:10:33.176Z,40.56
2017-05-31T17:12:34.738Z,40.17
2017-05-31T17:14:36.185Z,40.36
2017-05-31T17:16:38.513Z,39.29
2017-05-31T17:18:39.986Z,39.20
2017-05-31T17:20:41.436Z,39.59
2017-05-31T17:22:42.874Z,39.95
2017-05-31T17:24:44.311Z,40.25
2017-05-31T17:26:46.572Z,40.46
2017-05-31T17:28:48.326Z,40.25
2017-05-31T17:30:50.198Z,40.05
2017-05-31T17:32:52.565Z,40.05
2017-05-31T17:34:54.092Z,39.76
2017-05-31T17:36:56.240Z,39.86
2017-05-31T17:38:57.698Z,39.37
2017-05-31T17:40:59.202Z,39.67
2017-05-31T17:43:00.772Z,39.37
2017-05-31T17:45:03.119Z,39.84
2017-05-31T17:47:04.679Z,40.52
2017-05-31T17:49:06.134Z,41.00
2017-05-31T17:51:07.688Z,40.42
2017-05-31T17:53:09.155Z,40.42
2017-05-31T17:55:11.215Z,40.42
2017-05-31T17:57:12.701Z,41.09
2017-05-31T17:59:15.020Z,41.85
2017-05-31T18:01:17.308Z,41.56
2017-05-31T18:03:18.830Z,42.04
2017-05-31T18:05:20.293Z,41.46
2017-05-31T18:07:21.901Z,41.36
2017-05-31T18:09:23.376Z,40.78
2017-05-31T18:11:25.538Z,41.17
2017-05-31T18:13:27.462Z,40.50
2017-05-31T18:15:28.989Z,40.50
2017-05-31T18:17:31.246Z,40.88
2017-05-31T18:19:33.518Z,40.01
2017-05-31T18:21:35.089Z,40.98
2017-05-31T18:23:37.313Z,40.86
2017-05-31T18:25:39.423Z,40.47
2017-05-31T18:27:40.895Z,42.24
2017-05-31T18:29:43.256Z,41.44
2017-05-31T18:31:44.765Z,40.57
2017-05-31T18:33:46.324Z,40.57
2017-05-31T18:35:47.809Z,40.38
2017-05-31T18:37:49.275Z,40.47
2017-05-31T18:39:50.770Z,41.42
2017-05-31T18:41:52.222Z,40.36
2017-05-31T18:43:53.735Z,41.13
2017-05-31T18:45:55.221Z,42.10
2017-05-31T18:47:57.430Z,42.39
2017-05-31T18:49:58.897Z,42.87
2017-05-31T18:52:00.397Z,42.58
2017-05-31T18:54:02.110Z,41.88
2017-05-31T18:56:03.592Z,42.94
2017-05-31T18:58:05.057Z,43.33
2017-05-31T19:00:07.341Z,42.66
2017-05-31T19:02:09.576Z,43.33
2017-05-31T19:04:11.093Z,42.94
2017-05-31T19:06:12.563Z,43.62
2017-05-31T19:08:14.056Z,43.98
2017-05-31T19:10:15.521Z,44.85
2017-05-31T19:12:16.994Z,42.83
2017-05-31T19:14:19.054Z,42.83
2017-05-31T19:16:21.287Z,43.31
2017-05-31T19:18:22.840Z,44.18
2017-05-31T19:20:24.977Z,44.27
2017-05-31T19:22:26.414Z,43.98
2017-05-31T19:24:28.391Z,44.76
2017-05-31T19:26:29.911Z,44.83
2017-05-31T19:28:31.804Z,44.83
2017-05-31T19:30:33.948Z,44.35
2017-05-31T19:32:36.145Z,44.45
2017-05-31T19:34:37.567Z,43.00
2017-05-31T19:36:39.007Z,44.06
2017-05-31T19:38:40.492Z,43.87
2017-05-31T19:40:41.943Z,44.83
2017-05-31T19:42:43.477Z,45.60
2017-05-31T19:44:45.446Z,44.62
2017-05-31T19:46:47.288Z,43.94
2017-05-31T19:48:48.843Z,44.71
2017-05-31T19:50:50.730Z,45.00
2017-05-31T19:52:52.186Z,44.42
2017-05-31T19:54:53.675Z,44.81
2017-05-31T19:56:55.153Z,44.49
2017-05-31T19:58:57.158Z,44.71
2017-05-31T20:00:58.663Z,44.40
2017-05-31T20:03:00.122Z,43.05
2017-05-31T20:05:01.689Z,43.24
2017-05-31T20:07:03.895Z,44.31
2017-05-31T20:09:05.361Z,43.34
2017-05-31T20:11:06.819Z,43.34
2017-05-31T20:13:08.408Z,42.76
2017-05-31T20:15:09.869Z,42.96
2017-05-31T20:17:11.475Z,43.80
2017-05-31T20:19:13.023Z,42.47
2017-05-31T20:21:14.585Z,43.61
2017-05-31T20:23:16.699Z,43.71
2017-05-31T20:25:18.202Z,42.46
2017-05-31T20:27:19.784Z,43.32
2017-05-31T20:29:21.962Z,43.71
2017-05-31T20:31:23.947Z,42.55
2017-05-31T20:33:25.417Z,43.23
2017-05-31T20:35:27.128Z,42.63
2017-05-31T20:37:28.652Z,42.72
2017-05-31T20:39:30.215Z,43.11
2017-05-31T20:41:32.204Z,43.30
2017-05-31T20:43:33.680Z,43.08
2017-05-31T20:45:35.729Z,42.60
2017-05-31T20:47:37.180Z,42.12
2017-05-31T20:49:38.664Z,42.50
2017-05-31T20:51:40.816Z,42.50
2017-05-31T20:53:42.304Z,42.99
2017-05-31T20:55:44.313Z,42.70
2017-05-31T20:57:45.798Z,42.80
2017-05-31T20:59:47.286Z,42.60
2017-05-31T21:01:48.887Z,42.68
2017-05-31T21:03:50.327Z,43.07
2017-05-31T21:05:51.795Z,42.49
2017-05-31T21:07:53.917Z,42.68
2017-05-31T21:09:55.515Z,42.87
2017-05-31T21:11:57.001Z,42.58
2017-05-31T21:13:59.014Z,42.49
2017-05-31T21:16:00.484Z,42.77
2017-05-31T21:18:02.468Z,43.35
2017-05-31T21:20:04.369Z,42.49
2017-05-31T21:22:05.834Z,42.68
2017-05-31T21:24:07.338Z,42.56
2017-05-31T21:26:08.814Z,42.27
2017-05-31T21:28:10.752Z,42.56
2017-05-31T21:30:12.186Z,42.47
2017-05-31T21:32:13.728Z,42.94
2017-05-31T21:34:15.647Z,43.23
2017-05-31T21:36:17.139Z,44.10
2017-05-31T21:38:18.713Z,43.52
2017-05-31T21:40:20.828Z,43.88
2017-05-31T21:42:22.915Z,43.02
2017-05-31T21:44:24.915Z,43.12
2017-05-31T21:46:26.397Z,43.79
2017-05-31T21:48:28.337Z,43.79
2017-05-31T21:50:29.935Z,44.08
2017-05-31T21:52:31.419Z,43.70
2017-05-31T21:54:32.893Z,44.56
2017-05-31T21:56:34.462Z,44.94
2017-05-31T21:58:35.928Z,45.23
2017-05-31T22:00:37.522Z,45.42
2017-05-31T22:02:39.007Z,45.61
2017-05-31T22:04:40.470Z,45.23
2017-05-31T22:06:41.946Z,45.04
2017-05-31T22:08:43.539Z,45.81
2017-05-31T22:10:45.086Z,44.94
2017-05-31T22:12:46.562Z,44.92
2017-05-31T22:14:48.092Z,45.59
2017-05-31T22:16:49.739Z,45.21
2017-05-31T22:18:51.222Z,45.30
2017-05-31T22:20:52.739Z,46.17
2017-05-31T22:22:54.196Z,46.55
2017-05-31T22:24:56.153Z,46.45
2017-05-31T22:26:57.653Z,46.17
2017-05-31T22:28:59.406Z,46.26
2017-05-31T22:31:01.387Z,47.51
2017-05-31T22:33:02.886Z,46.94
2017-05-31T22:35:04.900Z,47.13
2017-05-31T22:37:06.328Z,46.65
2017-05-31T22:39:07.798Z,47.20
2017-05-31T22:41:09.257Z,47.58
2017-05-31T22:43:10.742Z,47.68
2017-05-31T22:45:12.203Z,47.49
2017-05-31T22:47:14.088Z,47.30
2017-05-31T22:49:15.609Z,47.68
2017-05-31T22:51:17.186Z,47.77
2017-05-31T22:53:18.801Z,48.25
2017-05-31T22:55:20.260Z,48.54
2017-05-31T22:57:21.678Z,48.83
2017-05-31T22:59:23.533Z,49.12
2017-05-31T23:01:24.974Z,49.31
2017-05-31T23:03:26.917Z,49.79
2017-05-31T23:05:28.353Z,49.48
2017-05-31T23:07:29.804Z,50.34
2017-05-31T23:09:31.232Z,49.96
2017-05-31T23:11:32.670Z,50.63
2017-05-31T23:13:34.127Z,49.96
2017-05-31T23:15:35.558Z,50.43
2017-05-31T23:17:36.986Z,50.34
2017-05-31T23:19:38.414Z,50.82
2017-05-31T23:21:39.842Z,51.40
2017-05-31T23:23:41.269Z,50.43
2017-05-31T23:25:43.131Z,51.08
2017-05-31T23:27:45.097Z,51.95
2017-05-31T23:29:47.116Z,50.99
2017-05-31T23:31:48.593Z,51.95
2017-05-31T23:33:50.025Z,51.18
2017-05-31T23:35:51.960Z,52.04
2017-05-31T23:37:53.401Z,52.23
2017-05-31T23:39:55.046Z,52.71
2017-05-31T23:41:56.527Z,52.52
2017-05-31T23:43:58.398Z,52.81
2017-05-31T23:46:00.513Z,52.69
2017-05-31T23:48:02.600Z,52.97
2017-05-31T23:50:04.702Z,53.07
2017-05-31T23:52:06.769Z,52.87
2017-05-31T23:54:08.269Z,54.03
2017-05-31T23:56:09.744Z,53.83
2017-05-31T23:58:11.564Z,53.26
